Grabenstetten Airport EDSG

Flugplatz Daten

Name: Grabenstetten Airport

Ident: EDSG

Lat: 48,53610992

Long: 9,436944008

Platzhöhe: 2329 ft

IataCode:

City: Grabenstetten

Metar

2022/01/11 04:50
LTFD 110450Z 06009KT 9999 SCT030 BKN090 11/07 Q1004 REDSGS

Taf

Gewünschte Webcam nicht vorhanden? Dann fügen Sie eine hinzu. Sie wird dann so schnell wie möglich freigeschaltet
Url: Title: